sensor_id;sensor_type;location;lat;lon;timestamp;pressure;altitude;pressure_sealevel;temperature;humidity
27613;BME280;15036;48.094;-1.690;2023-06-22T00:01:28;101107.34;;;24.86;51.25
27613;BME280;15036;48.094;-1.690;2023-06-22T00:03:53;101102.94;;;24.65;51.84
27613;BME280;15036;48.094;-1.690;2023-06-22T00:06:19;101096.53;;;24.59;52.16
27613;BME280;15036;48.094;-1.690;2023-06-22T00:08:44;101092.53;;;24.90;51.31
27613;BME280;15036;48.094;-1.690;2023-06-22T00:11:10;101093.13;;;24.87;51.87
27613;BME280;15036;48.094;-1.690;2023-06-22T00:13:35;101091.94;;;24.99;51.50
27613;BME280;15036;48.094;-1.690;2023-06-22T00:16:01;101089.81;;;24.75;52.03
27613;BME280;15036;48.094;-1.690;2023-06-22T00:18:26;101101.78;;;24.81;52.10
27613;BME280;15036;48.094;-1.690;2023-06-22T00:20:54;101097.00;;;24.86;51.93
27613;BME280;15036;48.094;-1.690;2023-06-22T00:23:23;101096.78;;;24.73;52.47
27613;BME280;15036;48.094;-1.690;2023-06-22T00:25:49;101095.03;;;24.92;52.23
27613;BME280;15036;48.094;-1.690;2023-06-22T00:28:15;101099.38;;;24.44;53.48
27613;BME280;15036;48.094;-1.690;2023-06-22T00:30:40;101090.41;;;24.47;53.66
27613;BME280;15036;48.094;-1.690;2023-06-22T00:33:06;101103.00;;;24.15;54.24
27613;BME280;15036;48.094;-1.690;2023-06-22T00:35:33;101100.75;;;24.42;53.62
27613;BME280;15036;48.094;-1.690;2023-06-22T00:37:59;101101.06;;;24.05;54.84
27613;BME280;15036;48.094;-1.690;2023-06-22T00:40:27;101103.28;;;24.23;54.63
27613;BME280;15036;48.094;-1.690;2023-06-22T00:42:53;101099.09;;;23.95;55.27
27613;BME280;15036;48.094;-1.690;2023-06-22T00:45:19;101096.28;;;23.95;55.36
27613;BME280;15036;48.094;-1.690;2023-06-22T00:47:44;101098.78;;;23.57;56.39
27613;BME280;15036;48.094;-1.690;2023-06-22T00:50:12;101086.72;;;24.67;53.56
27613;BME280;15036;48.094;-1.690;2023-06-22T00:52:43;101091.28;;;24.38;54.24
27613;BME280;15036;48.094;-1.690;2023-06-22T00:55:09;101087.09;;;23.95;55.65
27613;BME280;15036;48.094;-1.690;2023-06-22T00:57:35;101083.19;;;23.96;55.33
27613;BME280;15036;48.094;-1.690;2023-06-22T01:00:03;101091.28;;;24.28;54.97
27613;BME280;15036;48.094;-1.690;2023-06-22T01:02:31;101082.66;;;24.04;55.53
27613;BME280;15036;48.094;-1.690;2023-06-22T01:04:57;101076.78;;;23.95;55.53
27613;BME280;15036;48.094;-1.690;2023-06-22T01:07:31;101070.66;;;24.03;55.67
27613;BME280;15036;48.094;-1.690;2023-06-22T01:12:40;101065.63;;;23.95;56.06
27613;BME280;15036;48.094;-1.690;2023-06-22T01:15:13;101062.28;;;23.98;55.97
27613;BME280;15036;48.094;-1.690;2023-06-22T01:17:41;101073.44;;;23.88;56.45
27613;BME280;15036;48.094;-1.690;2023-06-22T01:20:09;101078.75;;;24.30;55.20
27613;BME280;15036;48.094;-1.690;2023-06-22T01:22:49;101086.22;;;24.45;54.84
27613;BME280;15036;48.094;-1.690;2023-06-22T01:25:23;101082.31;;;24.51;54.46
27613;BME280;15036;48.094;-1.690;2023-06-22T01:30:19;101081.78;;;24.29;55.28
27613;BME280;15036;48.094;-1.690;2023-06-22T01:32:45;101074.44;;;24.63;54.47
27613;BME280;15036;48.094;-1.690;2023-06-22T01:35:12;101070.06;;;24.27;55.08
27613;BME280;15036;48.094;-1.690;2023-06-22T01:37:38;101072.88;;;23.96;56.30
27613;BME280;15036;48.094;-1.690;2023-06-22T01:40:05;101073.44;;;23.98;56.16
27613;BME280;15036;48.094;-1.690;2023-06-22T01:42:32;101085.75;;;24.02;56.25
27613;BME280;15036;48.094;-1.690;2023-06-22T01:44:58;101077.88;;;24.30;55.33
27613;BME280;15036;48.094;-1.690;2023-06-22T01:47:24;101069.53;;;24.09;55.48
27613;BME280;15036;48.094;-1.690;2023-06-22T01:49:50;101067.56;;;23.85;56.03
27613;BME280;15036;48.094;-1.690;2023-06-22T01:52:18;101072.25;;;24.50;54.73
27613;BME280;15036;48.094;-1.690;2023-06-22T01:54:46;101067.56;;;24.40;54.76
27613;BME280;15036;48.094;-1.690;2023-06-22T01:57:11;101070.00;;;24.57;54.28
27613;BME280;15036;48.094;-1.690;2023-06-22T01:59:48;101073.34;;;24.59;54.15
27613;BME280;15036;48.094;-1.690;2023-06-22T02:02:19;101068.84;;;24.78;53.52
27613;BME280;15036;48.094;-1.690;2023-06-22T02:04:51;101072.50;;;24.58;54.13
27613;BME280;15036;48.094;-1.690;2023-06-22T02:07:19;101064.94;;;24.79;53.44
27613;BME280;15036;48.094;-1.690;2023-06-22T02:09:48;101066.53;;;24.95;52.93
27613;BME280;15036;48.094;-1.690;2023-06-22T02:12:18;101063.94;;;24.30;54.17
27613;BME280;15036;48.094;-1.690;2023-06-22T02:14:46;101058.88;;;24.52;53.64
27613;BME280;15036;48.094;-1.690;2023-06-22T02:17:12;101051.63;;;24.41;53.94
27613;BME280;15036;48.094;-1.690;2023-06-22T02:19:38;101054.31;;;24.81;52.80
27613;BME280;15036;48.094;-1.690;2023-06-22T02:22:06;101052.81;;;25.04;51.84
27613;BME280;15036;48.094;-1.690;2023-06-22T02:24:31;101052.03;;;24.88;52.29
27613;BME280;15036;48.094;-1.690;2023-06-22T02:26:59;101041.94;;;24.97;52.11
27613;BME280;15036;48.094;-1.690;2023-06-22T02:29:24;101035.88;;;24.80;52.42
27613;BME280;15036;48.094;-1.690;2023-06-22T02:31:50;101039.75;;;24.89;52.38
27613;BME280;15036;48.094;-1.690;2023-06-22T02:34:15;101047.91;;;25.29;50.97
27613;BME280;15036;48.094;-1.690;2023-06-22T02:36:46;101050.28;;;25.02;51.52
27613;BME280;15036;48.094;-1.690;2023-06-22T02:39:22;101050.03;;;25.04;51.15
27613;BME280;15036;48.094;-1.690;2023-06-22T02:41:49;101047.31;;;24.83;51.72
27613;BME280;15036;48.094;-1.690;2023-06-22T02:44:15;101032.81;;;24.81;51.43
27613;BME280;15036;48.094;-1.690;2023-06-22T02:46:42;101042.19;;;25.01;51.46
27613;BME280;15036;48.094;-1.690;2023-06-22T02:49:07;101044.63;;;25.17;50.57
27613;BME280;15036;48.094;-1.690;2023-06-22T02:51:33;101047.69;;;24.52;52.17
27613;BME280;15036;48.094;-1.690;2023-06-22T02:54:02;101049.16;;;24.19;52.97
27613;BME280;15036;48.094;-1.690;2023-06-22T02:56:28;101047.66;;;24.57;52.43
27613;BME280;15036;48.094;-1.690;2023-06-22T02:58:55;101050.13;;;24.68;51.96
27613;BME280;15036;48.094;-1.690;2023-06-22T03:01:26;101055.38;;;24.90;51.06
27613;BME280;15036;48.094;-1.690;2023-06-22T03:03:53;101055.78;;;24.48;52.21
27613;BME280;15036;48.094;-1.690;2023-06-22T03:06:19;101060.53;;;24.48;52.14
27613;BME280;15036;48.094;-1.690;2023-06-22T03:08:49;101068.59;;;24.54;52.26
27613;BME280;15036;48.094;-1.690;2023-06-22T03:11:15;101048.81;;;24.41;52.70
27613;BME280;15036;48.094;-1.690;2023-06-22T03:13:40;101053.38;;;24.06;53.71
27613;BME280;15036;48.094;-1.690;2023-06-22T03:16:07;101055.56;;;23.54;55.27
27613;BME280;15036;48.094;-1.690;2023-06-22T03:18:32;101058.94;;;24.22;53.44
27613;BME280;15036;48.094;-1.690;2023-06-22T03:20:58;101061.16;;;23.64;55.43
27613;BME280;15036;48.094;-1.690;2023-06-22T03:23:23;101060.91;;;23.81;54.81
27613;BME280;15036;48.094;-1.690;2023-06-22T03:25:49;101069.44;;;23.29;56.34
27613;BME280;15036;48.094;-1.690;2023-06-22T03:28:14;101062.81;;;23.50;55.48
27613;BME280;15036;48.094;-1.690;2023-06-22T03:30:40;101059.75;;;23.47;55.85
27613;BME280;15036;48.094;-1.690;2023-06-22T03:33:05;101072.59;;;23.68;55.38
27613;BME280;15036;48.094;-1.690;2023-06-22T03:35:31;101083.31;;;23.14;56.72
27613;BME280;15036;48.094;-1.690;2023-06-22T03:37:56;101069.50;;;23.59;55.85
27613;BME280;15036;48.094;-1.690;2023-06-22T03:40:21;101067.88;;;23.88;54.72
27613;BME280;15036;48.094;-1.690;2023-06-22T03:42:48;101072.03;;;24.26;53.39
27613;BME280;15036;48.094;-1.690;2023-06-22T03:45:13;101066.72;;;24.30;53.38
27613;BME280;15036;48.094;-1.690;2023-06-22T03:47:39;101068.38;;;24.41;53.10
27613;BME280;15036;48.094;-1.690;2023-06-22T03:50:05;101065.88;;;24.44;53.00
27613;BME280;15036;48.094;-1.690;2023-06-22T03:52:31;101066.44;;;24.31;52.98
27613;BME280;15036;48.094;-1.690;2023-06-22T03:54:57;101068.91;;;24.43;52.50
27613;BME280;15036;48.094;-1.690;2023-06-22T03:57:23;101067.84;;;23.68;54.82
27613;BME280;15036;48.094;-1.690;2023-06-22T03:59:48;101070.91;;;24.27;53.27
27613;BME280;15036;48.094;-1.690;2023-06-22T04:02:14;101072.31;;;23.74;54.80
27613;BME280;15036;48.094;-1.690;2023-06-22T04:04:39;101066.75;;;23.94;54.09
27613;BME280;15036;48.094;-1.690;2023-06-22T04:07:05;101071.19;;;23.75;54.67
27613;BME280;15036;48.094;-1.690;2023-06-22T04:09:30;101076.22;;;23.58;55.26
27613;BME280;15036;48.094;-1.690;2023-06-22T04:11:56;101080.66;;;23.39;55.61
27613;BME280;15036;48.094;-1.690;2023-06-22T04:14:21;101066.19;;;23.92;53.90
27613;BME280;15036;48.094;-1.690;2023-06-22T04:16:47;101077.59;;;23.56;54.96
27613;BME280;15036;48.094;-1.690;2023-06-22T04:19:12;101092.00;;;23.17;55.94
27613;BME280;15036;48.094;-1.690;2023-06-22T04:21:42;101086.69;;;23.26;55.73
27613;BME280;15036;48.094;-1.690;2023-06-22T04:24:07;101083.22;;;23.81;54.15
27613;BME280;15036;48.094;-1.690;2023-06-22T04:26:33;101087.94;;;23.85;54.04
27613;BME280;15036;48.094;-1.690;2023-06-22T04:29:03;101079.84;;;24.34;52.88
27613;BME280;15036;48.094;-1.690;2023-06-22T04:31:31;101089.66;;;24.06;53.05
27613;BME280;15036;48.094;-1.690;2023-06-22T04:33:57;101086.81;;;23.91;53.65
27613;BME280;15036;48.094;-1.690;2023-06-22T04:36:40;101086.78;;;23.61;54.34
27613;BME280;15036;48.094;-1.690;2023-06-22T04:39:07;101093.50;;;24.21;52.99
27613;BME280;15036;48.094;-1.690;2023-06-22T04:41:37;101086.53;;;24.38;52.72
27613;BME280;15036;48.094;-1.690;2023-06-22T04:46:40;101098.81;;;23.77;54.05
27613;BME280;15036;48.094;-1.690;2023-06-22T04:49:06;101102.72;;;23.81;53.54
27613;BME280;15036;48.094;-1.690;2023-06-22T04:51:41;101100.75;;;24.01;53.07
27613;BME280;15036;48.094;-1.690;2023-06-22T04:54:07;101103.03;;;24.20;52.83
27613;BME280;15036;48.094;-1.690;2023-06-22T04:56:33;101100.75;;;24.27;52.72
27613;BME280;15036;48.094;-1.690;2023-06-22T04:58:59;101102.44;;;23.72;54.37
27613;BME280;15036;48.094;-1.690;2023-06-22T05:01:24;101104.38;;;23.72;54.40
27613;BME280;15036;48.094;-1.690;2023-06-22T05:03:50;101100.22;;;23.94;53.54
27613;BME280;15036;48.094;-1.690;2023-06-22T05:06:16;101109.00;;;23.26;55.51
27613;BME280;15036;48.094;-1.690;2023-06-22T05:08:42;101109.94;;;23.57;54.68
27613;BME280;15036;48.094;-1.690;2023-06-22T05:11:08;101125.25;;;23.59;54.34
27613;BME280;15036;48.094;-1.690;2023-06-22T05:13:34;101116.34;;;23.47;54.48
27613;BME280;15036;48.094;-1.690;2023-06-22T05:16:01;101105.53;;;24.21;53.13
27613;BME280;15036;48.094;-1.690;2023-06-22T05:18:30;101103.25;;;24.43;52.19
27613;BME280;15036;48.094;-1.690;2023-06-22T05:20:56;101100.19;;;23.69;53.63
27613;BME280;15036;48.094;-1.690;2023-06-22T05:23:22;101103.81;;;23.80;53.68
27613;BME280;15036;48.094;-1.690;2023-06-22T05:25:47;101105.25;;;23.92;53.36
27613;BME280;15036;48.094;-1.690;2023-06-22T05:28:12;101101.91;;;24.26;52.36
27613;BME280;15036;48.094;-1.690;2023-06-22T05:30:39;101092.94;;;23.73;52.83
27613;BME280;15036;48.094;-1.690;2023-06-22T05:33:04;101101.28;;;23.58;53.72
27613;BME280;15036;48.094;-1.690;2023-06-22T05:35:29;101103.81;;;23.95;52.58
27613;BME280;15036;48.094;-1.690;2023-06-22T05:37:55;101110.25;;;23.95;52.72
27613;BME280;15036;48.094;-1.690;2023-06-22T05:40:21;101108.53;;;23.59;53.50
27613;BME280;15036;48.094;-1.690;2023-06-22T05:42:46;101108.56;;;23.74;53.12
27613;BME280;15036;48.094;-1.690;2023-06-22T05:45:12;101119.16;;;23.62;53.38
27613;BME280;15036;48.094;-1.690;2023-06-22T05:47:37;101121.34;;;23.50;53.91
27613;BME280;15036;48.094;-1.690;2023-06-22T05:50:03;101106.88;;;23.73;53.80
27613;BME280;15036;48.094;-1.690;2023-06-22T05:52:33;101115.81;;;23.75;53.97
27613;BME280;15036;48.094;-1.690;2023-06-22T05:54:59;101124.44;;;23.59;54.15
27613;BME280;15036;48.094;-1.690;2023-06-22T05:57:24;101117.78;;;24.35;52.79
27613;BME280;15036;48.094;-1.690;2023-06-22T05:59:50;101114.69;;;24.52;51.95
27613;BME280;15036;48.094;-1.690;2023-06-22T06:02:15;101116.41;;;24.38;52.39
27613;BME280;15036;48.094;-1.690;2023-06-22T06:04:40;101118.91;;;23.79;53.68
27613;BME280;15036;48.094;-1.690;2023-06-22T06:07:06;101131.13;;;23.63;54.75
27613;BME280;15036;48.094;-1.690;2023-06-22T06:09:31;101132.59;;;24.16;52.88
27613;BME280;15036;48.094;-1.690;2023-06-22T06:11:56;101118.34;;;24.27;52.66
27613;BME280;15036;48.094;-1.690;2023-06-22T06:14:22;101114.75;;;24.06;52.64
27613;BME280;15036;48.094;-1.690;2023-06-22T06:16:49;101113.00;;;24.66;51.96
27613;BME280;15036;48.094;-1.690;2023-06-22T06:19:14;101117.94;;;24.94;50.93
27613;BME280;15036;48.094;-1.690;2023-06-22T06:21:40;101117.56;;;25.16;50.30
27613;BME280;15036;48.094;-1.690;2023-06-22T06:24:05;101122.28;;;25.25;50.08
27613;BME280;15036;48.094;-1.690;2023-06-22T06:26:31;101127.22;;;25.43;49.89
27613;BME280;15036;48.094;-1.690;2023-06-22T06:28:59;101129.75;;;24.51;51.75
27613;BME280;15036;48.094;-1.690;2023-06-22T06:31:25;101133.34;;;24.71;51.42
27613;BME280;15036;48.094;-1.690;2023-06-22T06:33:52;101124.91;;;24.97;50.65
27613;BME280;15036;48.094;-1.690;2023-06-22T06:36:19;101122.75;;;24.73;51.04
27613;BME280;15036;48.094;-1.690;2023-06-22T06:38:44;101132.50;;;24.81;50.49
27613;BME280;15036;48.094;-1.690;2023-06-22T06:41:12;101130.63;;;25.35;49.54
27613;BME280;15036;48.094;-1.690;2023-06-22T06:43:37;101131.22;;;25.22;49.56
27613;BME280;15036;48.094;-1.690;2023-06-22T06:46:03;101130.44;;;25.12;50.17
27613;BME280;15036;48.094;-1.690;2023-06-22T06:48:28;101126.81;;;25.06;50.37
27613;BME280;15036;48.094;-1.690;2023-06-22T06:50:53;101130.00;;;24.64;51.31
27613;BME280;15036;48.094;-1.690;2023-06-22T06:53:19;101129.16;;;25.53;49.25
27613;BME280;15036;48.094;-1.690;2023-06-22T06:55:44;101143.53;;;25.21;50.04
27613;BME280;15036;48.094;-1.690;2023-06-22T06:58:10;101137.81;;;25.51;49.40
27613;BME280;15036;48.094;-1.690;2023-06-22T07:00:38;101136.22;;;25.35;49.60
27613;BME280;15036;48.094;-1.690;2023-06-22T07:03:04;101145.34;;;25.56;49.51
27613;BME280;15036;48.094;-1.690;2023-06-22T07:05:29;101141.66;;;25.99;47.90
27613;BME280;15036;48.094;-1.690;2023-06-22T07:07:54;101150.72;;;25.42;49.54
27613;BME280;15036;48.094;-1.690;2023-06-22T07:10:20;101151.53;;;25.53;49.69
27613;BME280;15036;48.094;-1.690;2023-06-22T07:12:46;101151.72;;;25.61;48.99
27613;BME280;15036;48.094;-1.690;2023-06-22T07:15:11;101154.81;;;25.65;49.30
27613;BME280;15036;48.094;-1.690;2023-06-22T07:17:38;101157.13;;;25.92;48.66
27613;BME280;15036;48.094;-1.690;2023-06-22T07:20:08;101154.94;;;25.40;49.50
27613;BME280;15036;48.094;-1.690;2023-06-22T07:22:35;101166.25;;;26.12;48.33
27613;BME280;15036;48.094;-1.690;2023-06-22T07:25:01;101165.88;;;26.52;47.08
27613;BME280;15036;48.094;-1.690;2023-06-22T07:27:29;101173.84;;;26.07;47.95
27613;BME280;15036;48.094;-1.690;2023-06-22T07:29:58;101176.97;;;26.62;46.97
27613;BME280;15036;48.094;-1.690;2023-06-22T07:32:24;101179.88;;;26.52;46.86
27613;BME280;15036;48.094;-1.690;2023-06-22T07:34:50;101174.66;;;26.07;47.66
27613;BME280;15036;48.094;-1.690;2023-06-22T07:37:15;101178.16;;;26.56;46.76
27613;BME280;15036;48.094;-1.690;2023-06-22T07:39:40;101184.94;;;26.50;46.93
27613;BME280;15036;48.094;-1.690;2023-06-22T07:42:07;101191.75;;;26.39;47.33
27613;BME280;15036;48.094;-1.690;2023-06-22T07:44:33;101194.22;;;26.46;47.14
27613;BME280;15036;48.094;-1.690;2023-06-22T07:46:58;101196.84;;;26.66;46.50
27613;BME280;15036;48.094;-1.690;2023-06-22T07:49:23;101198.84;;;25.88;48.50
27613;BME280;15036;48.094;-1.690;2023-06-22T07:51:49;101200.84;;;26.26;47.63
27613;BME280;15036;48.094;-1.690;2023-06-22T07:54:14;101207.50;;;27.45;45.20
27613;BME280;15036;48.094;-1.690;2023-06-22T07:56:41;101209.50;;;27.39;44.50
27613;BME280;15036;48.094;-1.690;2023-06-22T07:59:06;101210.56;;;26.96;45.09
27613;BME280;15036;48.094;-1.690;2023-06-22T08:01:31;101202.78;;;27.40;44.64
27613;BME280;15036;48.094;-1.690;2023-06-22T08:03:57;101202.09;;;27.01;44.63
27613;BME280;15036;48.094;-1.690;2023-06-22T08:06:22;101206.88;;;27.24;44.54
27613;BME280;15036;48.094;-1.690;2023-06-22T08:08:47;101205.44;;;27.27;44.42
27613;BME280;15036;48.094;-1.690;2023-06-22T08:11:14;101207.88;;;27.10;45.16
27613;BME280;15036;48.094;-1.690;2023-06-22T08:13:39;101211.25;;;27.59;44.25
27613;BME280;15036;48.094;-1.690;2023-06-22T08:16:05;101211.28;;;27.30;44.23
27613;BME280;15036;48.094;-1.690;2023-06-22T08:18:30;101212.97;;;27.31;44.20
27613;BME280;15036;48.094;-1.690;2023-06-22T08:20:56;101218.09;;;27.48;43.92
27613;BME280;15036;48.094;-1.690;2023-06-22T08:23:21;101219.69;;;28.15;42.92
27613;BME280;15036;48.094;-1.690;2023-06-22T08:25:48;101219.28;;;27.18;44.27
27613;BME280;15036;48.094;-1.690;2023-06-22T08:28:15;101227.03;;;27.74;43.25
27613;BME280;15036;48.094;-1.690;2023-06-22T08:30:40;101219.69;;;27.35;44.28
27613;BME280;15036;48.094;-1.690;2023-06-22T08:33:06;101222.69;;;27.81;43.85
27613;BME280;15036;48.094;-1.690;2023-06-22T08:35:31;101228.09;;;27.78;43.13
27613;BME280;15036;48.094;-1.690;2023-06-22T08:37:57;101222.38;;;27.64;43.37
27613;BME280;15036;48.094;-1.690;2023-06-22T08:40:23;101219.66;;;27.78;43.29
27613;BME280;15036;48.094;-1.690;2023-06-22T08:42:49;101223.94;;;27.94;42.61
27613;BME280;15036;48.094;-1.690;2023-06-22T08:45:15;101231.13;;;27.39;42.67
27613;BME280;15036;48.094;-1.690;2023-06-22T08:47:41;101234.06;;;27.95;41.78
27613;BME280;15036;48.094;-1.690;2023-06-22T08:50:08;101233.00;;;28.28;41.17
27613;BME280;15036;48.094;-1.690;2023-06-22T08:52:34;101233.38;;;28.72;40.33
27613;BME280;15036;48.094;-1.690;2023-06-22T08:54:59;101239.22;;;28.06;41.53
27613;BME280;15036;48.094;-1.690;2023-06-22T08:57:25;101227.59;;;28.32;39.99
27613;BME280;15036;48.094;-1.690;2023-06-22T08:59:50;101226.47;;;28.14;40.95
27613;BME280;15036;48.094;-1.690;2023-06-22T09:02:18;101228.16;;;28.66;39.57
27613;BME280;15036;48.094;-1.690;2023-06-22T09:04:45;101239.66;;;28.13;40.60
27613;BME280;15036;48.094;-1.690;2023-06-22T09:07:10;101235.44;;;28.16;40.21
27613;BME280;15036;48.094;-1.690;2023-06-22T09:09:36;101233.06;;;28.60;40.30
27613;BME280;15036;48.094;-1.690;2023-06-22T09:12:02;101234.50;;;28.58;39.52
27613;BME280;15036;48.094;-1.690;2023-06-22T09:14:27;101239.56;;;28.88;39.28
27613;BME280;15036;48.094;-1.690;2023-06-22T09:16:53;101231.53;;;28.81;39.24
27613;BME280;15036;48.094;-1.690;2023-06-22T09:19:18;101238.09;;;29.23;38.52
27613;BME280;15036;48.094;-1.690;2023-06-22T09:21:44;101248.41;;;28.81;38.21
27613;BME280;15036;48.094;-1.690;2023-06-22T09:24:09;101239.75;;;29.37;38.14
27613;BME280;15036;48.094;-1.690;2023-06-22T09:26:34;101250.38;;;29.54;37.88
27613;BME280;15036;48.094;-1.690;2023-06-22T09:29:01;101246.44;;;29.55;37.99
27613;BME280;15036;48.094;-1.690;2023-06-22T09:31:26;101252.47;;;29.75;37.30
27613;BME280;15036;48.094;-1.690;2023-06-22T09:33:53;101243.28;;;29.16;37.55
27613;BME280;15036;48.094;-1.690;2023-06-22T09:36:19;101253.72;;;29.29;37.35
27613;BME280;15036;48.094;-1.690;2023-06-22T09:38:44;101269.44;;;29.98;36.83
27613;BME280;15036;48.094;-1.690;2023-06-22T09:41:10;101267.28;;;29.81;36.35
27613;BME280;15036;48.094;-1.690;2023-06-22T09:43:35;101277.38;;;29.41;36.54
27613;BME280;15036;48.094;-1.690;2023-06-22T09:46:01;101269.66;;;29.87;35.98
27613;BME280;15036;48.094;-1.690;2023-06-22T09:48:27;101279.28;;;29.86;36.92
27613;BME280;15036;48.094;-1.690;2023-06-22T09:50:53;101276.41;;;29.19;37.74
27613;BME280;15036;48.094;-1.690;2023-06-22T09:53:19;101282.56;;;28.88;37.81
27613;BME280;15036;48.094;-1.690;2023-06-22T09:55:44;101285.44;;;28.70;38.36
27613;BME280;15036;48.094;-1.690;2023-06-22T09:58:10;101285.91;;;29.23;37.75
27613;BME280;15036;48.094;-1.690;2023-06-22T10:00:35;101294.38;;;29.04;37.70
27613;BME280;15036;48.094;-1.690;2023-06-22T10:03:00;101284.88;;;30.00;37.10
27613;BME280;15036;48.094;-1.690;2023-06-22T10:05:26;101280.81;;;29.52;37.31
27613;BME280;15036;48.094;-1.690;2023-06-22T10:07:51;101288.81;;;30.13;35.95
27613;BME280;15036;48.094;-1.690;2023-06-22T10:10:16;101278.44;;;29.86;36.20
27613;BME280;15036;48.094;-1.690;2023-06-22T10:13:06;101285.94;;;29.90;36.34
27613;BME280;15036;48.094;-1.690;2023-06-22T10:15:33;101288.53;;;29.60;37.17
27613;BME280;15036;48.094;-1.690;2023-06-22T10:17:58;101296.94;;;30.14;36.50
27613;BME280;15036;48.094;-1.690;2023-06-22T10:20:23;101288.81;;;29.99;37.01
27613;BME280;15036;48.094;-1.690;2023-06-22T10:22:51;101294.69;;;29.62;37.63
27613;BME280;15036;48.094;-1.690;2023-06-22T10:25:17;101288.00;;;30.84;35.33
27613;BME280;15036;48.094;-1.690;2023-06-22T10:27:42;101297.28;;;30.70;35.56
27613;BME280;15036;48.094;-1.690;2023-06-22T10:30:12;101289.34;;;30.15;37.00
27613;BME280;15036;48.094;-1.690;2023-06-22T10:32:38;101295.31;;;30.49;36.19
27613;BME280;15036;48.094;-1.690;2023-06-22T10:35:04;101290.81;;;29.44;37.79
27613;BME280;15036;48.094;-1.690;2023-06-22T10:37:29;101294.19;;;29.87;37.11
27613;BME280;15036;48.094;-1.690;2023-06-22T10:39:54;101289.25;;;30.06;36.55
27613;BME280;15036;48.094;-1.690;2023-06-22T10:42:20;101288.38;;;30.55;35.62
27613;BME280;15036;48.094;-1.690;2023-06-22T10:44:46;101289.03;;;29.35;37.73
27613;BME280;15036;48.094;-1.690;2023-06-22T10:47:11;101282.16;;;29.54;37.78
27613;BME280;15036;48.094;-1.690;2023-06-22T10:49:40;101288.81;;;29.99;36.75
27613;BME280;15036;48.094;-1.690;2023-06-22T10:52:07;101291.59;;;30.26;36.28
27613;BME280;15036;48.094;-1.690;2023-06-22T10:54:33;101291.97;;;30.47;35.91
27613;BME280;15036;48.094;-1.690;2023-06-22T10:56:59;101288.81;;;30.13;36.66
27613;BME280;15036;48.094;-1.690;2023-06-22T10:59:25;101299.53;;;30.24;36.83
27613;BME280;15036;48.094;-1.690;2023-06-22T11:01:51;101308.38;;;30.45;36.08
27613;BME280;15036;48.094;-1.690;2023-06-22T11:04:17;101307.28;;;30.19;35.85
27613;BME280;15036;48.094;-1.690;2023-06-22T11:06:43;101307.28;;;30.05;36.79
27613;BME280;15036;48.094;-1.690;2023-06-22T11:09:08;101311.00;;;30.41;36.13
27613;BME280;15036;48.094;-1.690;2023-06-22T11:11:34;101303.66;;;29.77;36.49
27613;BME280;15036;48.094;-1.690;2023-06-22T11:13:59;101306.75;;;30.03;36.42
27613;BME280;15036;48.094;-1.690;2023-06-22T11:16:25;101311.06;;;29.73;37.05
27613;BME280;15036;48.094;-1.690;2023-06-22T11:18:50;101306.19;;;30.42;36.20
27613;BME280;15036;48.094;-1.690;2023-06-22T11:21:15;101310.63;;;29.66;37.48
27613;BME280;15036;48.094;-1.690;2023-06-22T11:23:42;101311.34;;;29.99;36.79
27613;BME280;15036;48.094;-1.690;2023-06-22T11:26:07;101313.16;;;30.80;35.71
27613;BME280;15036;48.094;-1.690;2023-06-22T11:28:33;101317.50;;;30.01;36.43
27613;BME280;15036;48.094;-1.690;2023-06-22T11:30:58;101316.75;;;30.58;35.70
27613;BME280;15036;48.094;-1.690;2023-06-22T11:33:24;101320.09;;;31.49;34.23
27613;BME280;15036;48.094;-1.690;2023-06-22T11:35:49;101315.16;;;31.32;33.98
27613;BME280;15036;48.094;-1.690;2023-06-22T11:38:15;101317.91;;;31.85;33.74
27613;BME280;15036;48.094;-1.690;2023-06-22T11:40:40;101315.69;;;32.21;32.65
27613;BME280;15036;48.094;-1.690;2023-06-22T11:43:05;101305.03;;;32.27;32.75
27613;BME280;15036;48.094;-1.690;2023-06-22T11:45:31;101311.25;;;31.81;33.01
27613;BME280;15036;48.094;-1.690;2023-06-22T11:47:56;101308.56;;;32.32;31.86
27613;BME280;15036;48.094;-1.690;2023-06-22T11:50:21;101298.41;;;32.91;31.64
27613;BME280;15036;48.094;-1.690;2023-06-22T11:52:47;101300.03;;;33.18;30.89
27613;BME280;15036;48.094;-1.690;2023-06-22T11:55:12;101294.78;;;32.57;32.09
27613;BME280;15036;48.094;-1.690;2023-06-22T11:57:39;101300.13;;;31.85;34.00
27613;BME280;15036;48.094;-1.690;2023-06-22T12:00:16;101308.13;;;31.52;34.41
27613;BME280;15036;48.094;-1.690;2023-06-22T12:02:43;101310.81;;;31.26;34.38
27613;BME280;15036;48.094;-1.690;2023-06-22T12:05:09;101306.31;;;31.95;33.61
27613;BME280;15036;48.094;-1.690;2023-06-22T12:07:34;101302.59;;;32.94;32.10
27613;BME280;15036;48.094;-1.690;2023-06-22T12:10:00;101320.31;;;32.00;33.16
27613;BME280;15036;48.094;-1.690;2023-06-22T12:12:26;101315.66;;;32.04;33.78
27613;BME280;15036;48.094;-1.690;2023-06-22T12:14:51;101312.28;;;31.24;35.86
27613;BME280;15036;48.094;-1.690;2023-06-22T12:17:17;101322.88;;;30.74;36.93
27613;BME280;15036;48.094;-1.690;2023-06-22T12:19:42;101313.22;;;30.89;37.12
27613;BME280;15036;48.094;-1.690;2023-06-22T12:22:07;101311.41;;;31.15;36.81
27613;BME280;15036;48.094;-1.690;2023-06-22T12:24:33;101309.81;;;31.53;36.24
27613;BME280;15036;48.094;-1.690;2023-06-22T12:26:58;101329.19;;;31.15;36.84
27613;BME280;15036;48.094;-1.690;2023-06-22T12:29:23;101320.19;;;30.69;37.66
27613;BME280;15036;48.094;-1.690;2023-06-22T12:31:49;101327.38;;;30.75;37.16
27613;BME280;15036;48.094;-1.690;2023-06-22T12:34:14;101323.03;;;31.13;36.95
27613;BME280;15036;48.094;-1.690;2023-06-22T12:36:39;101314.72;;;31.78;35.85
27613;BME280;15036;48.094;-1.690;2023-06-22T12:39:05;101317.03;;;31.76;36.07
27613;BME280;15036;48.094;-1.690;2023-06-22T12:41:30;101315.59;;;32.52;34.36
27613;BME280;15036;48.094;-1.690;2023-06-22T12:43:56;101321.34;;;32.30;34.62